Pride Of Kent — MQCJ2 — position and weather

sailwx.info

Track history (hours):
 
Tides and Currents Weather Stations Pressure Air Temp Water Temp Dewpoint Dewpoint Depression Visibility Wind Speed Wind Dir Waves Ship Positions

Pride Of Kent

Operator: P & O Ferries

Last reported at 2016-May-31 09:33 UTC. Time now 2016-May-31 10:06 UTC.
Position N 51°07' E 001°28'.

Length 180 m; draft 6 m.

Type: Passenger vessel. MMSI: 232009000.

Date/timePositionNaut miles runAvg speedWind from/ knotsBaromVisibWave heightAir tempDewpointWater temp
2016-May-31 09:33N 51°07' E 001°28'1616.3
2016-May-31 08:34N 50°58' E 001°50'1 0.5
2016-May-31 07:33N 50°58' E 001°51'17 5.8
2016-May-31 04:34N 51°06' E 001°26'1616.3
2016-May-31 03:33N 50°58' E 001°50'1 1.0
2016-May-31 02:33N 50°58' E 001°51'1312.7
2016-May-31 01:33N 51°01' E 001°31'10 7.6
2016-May-31 00:16N 51°07' E 001°20'913.3
2016-May-30 23:33N 51°04' E 001°34'1212.1
2016-May-30 22:33N 50°58' E 001°51'2 2.0
2016-May-30 21:33N 50°58' E 001°48'1818.3
2016-May-30 20:33N 51°07' E 001°22'1 0.9
2016-May-30 19:33N 51°07' E 001°21'1717.1
2016-May-30 18:33N 50°58' E 001°44'4 4.4
2016-May-30 17:33N 50°58' E 001°51'7 6.8
2016-May-30 16:33N 50°58' E 001°40'1614.5
2016-May-30 15:29N 51°07' E 001°20'6 6.1
2016-May-30 14:34N 51°06' E 001°29'1616.0
2016-May-30 13:34N 50°58' E 001°51'0 0.0
2016-May-30 12:33N 50°58' E 001°51'4 4.0
2016-May-30 11:33N 50°58' E 001°45'1818.1
2016-May-30 10:33N 51°07' E 001°20'1 0.5
2016-May-30 09:32N 51°07' E 001°20'1616.7
2016-May-30 08:34N 50°59' E 001°43'5 5.3
2016-May-30 07:32N 50°58' E 001°51'7 6.9
2016-May-30 06:33N 50°58' E 001°40'16 7.4
2016-May-30 04:26N 51°07' E 001°20'8 8.7
2016-May-30 03:34N 51°04' E 001°31'1413.8
2016-May-30 02:33N 50°58' E 001°51'0 0.0
2016-May-30 01:33N 50°58' E 001°51'1212.1
2016-May-30 00:33N 51°00' E 001°32'10 9.6
2016-May-29 23:28N 51°07' E 001°20'7 7.6
2016-May-29 22:34N 51°06' E 001°31'1514.7
2016-May-29 21:33N 50°58' E 001°51'0 0.2
2016-May-29 20:33N 50°58' E 001°51'1717.3
2016-May-29 19:33N 51°05' E 001°26'4 4.3
2016-May-29 18:33N 51°07' E 001°20'1312.7
2016-May-29 17:33N 51°01' E 001°37'9 9.5
2016-May-29 16:33N 50°58' E 001°52'8 7.9
2016-May-29 15:33N 50°59' E 001°39'1510.0
2016-May-29 14:05N 51°07' E 001°20'611.7
2016-May-29 13:33N 51°05' E 001°29'1615.6
2016-May-29 12:33N 50°58' E 001°51'2 1.6
2016-May-29 11:33N 50°58' E 001°49'1717.5
2016-May-29 10:34N 51°06' E 001°24'3 2.6
2016-May-29 09:32N 51°07' E 001°20'1616.2
2016-May-29 08:33N 50°59' E 001°42'6 5.9
2016-May-29 07:33N 50°58' E 001°51'1111.0
2016-May-29 06:33N 51°00' E 001°34'11 5.0
2016-May-29 04:19N 51°07' E 001°20'6 7.5
2016-May-29 03:33N 51°06' E 001°29'1615.9
2016-May-29 02:33N 50°58' E 001°51'0 0.0
2016-May-29 01:31N 50°58' E 001°51'1516.1
2016-May-29 00:33N 51°03' E 001°28'7 6.6
2016-May-28 23:31N 51°07' E 001°20'1515.8
2016-May-28 22:33N 50°60' E 001°41'7 6.6
2016-May-28 21:33N 50°58' E 001°51'1111.4
2016-May-28 20:33N 50°60' E 001°33'1111.0
2016-May-28 19:32N 51°07' E 001°20'7 7.1
2016-May-28 18:33N 51°07' E 001°31'1414.4
2016-May-28 17:34N 50°58' E 001°49'1 1.2
2016-May-28 16:33N 50°58' E 001°51'1817.6
2016-May-28 15:34N 51°04' E 001°25'5 4.5
2016-May-28 14:33N 51°07' E 001°20'1212.2
2016-May-28 13:34N 51°02' E 001°38'10 9.7
2016-May-28 12:34N 50°58' E 001°52'4 4.0
2016-May-28 11:34N 50°58' E 001°45'1818.1
2016-May-28 10:34N 51°06' E 001°20'1 0.8
2016-May-28 09:24N 51°07' E 001°20'1517.3
2016-May-28 08:34N 50°60' E 001°40'7 7.0
2016-May-28 07:33N 50°58' E 001°51'1010.3
2016-May-28 06:33N 50°59' E 001°35'1211.0
2016-May-28 05:26N 51°07' E 001°20'0 0.0
2016-May-28 04:31N 51°07' E 001°20'1010.1
2016-May-28 03:34N 51°03' E 001°34'1211.8
2016-May-28 02:33N 50°58' E 001°51'4 3.8
2016-May-28 01:33N 50°58' E 001°45'1817.6
2016-May-28 00:33N 51°07' E 001°21'1 0.8
2016-May-27 23:24N 51°07' E 001°20'1315.5
2016-May-27 22:33N 51°01' E 001°38'9 8.5
2016-May-27 21:33N 50°58' E 001°51'6 6.2
2016-May-27 20:33N 50°59' E 001°41'1615.9
2016-May-27 19:33N 51°07' E 001°20'0 0.2
2016-May-27 18:34N 51°07' E 001°20'1818.0
2016-May-27 17:33N 50°58' E 001°45'4 4.1
2016-May-27 16:33N 50°58' E 001°52'1514.8
2016-May-27 15:33N 51°03' E 001°29'7 7.3
2016-May-27 14:32N 51°07' E 001°20'7 7.5
2016-May-27 13:33N 51°04' E 001°30'1514.6
2016-May-27 12:33N 50°58' E 001°52'2 1.7
2016-May-27 11:34N 50°58' E 001°49'1818.0
2016-May-27 10:33N 51°06' E 001°23'2 1.9
2016-May-27 09:20N 51°07' E 001°20'1215.3
2016-May-27 08:33N 51°01' E 001°37'10 9.7
2016-May-27 07:33N 50°58' E 001°51'7 6.7
2016-May-27 06:33N 50°58' E 001°40'15 7.5
2016-May-27 04:34N 51°07' E 001°21'1817.9
2016-May-27 03:34N 50°58' E 001°46'3 3.4
2016-May-27 02:33N 50°58' E 001°51'1312.8
2016-May-27 01:33N 51°02' E 001°32'9 8.7
2016-May-27 00:30N 51°07' E 001°20'5 5.0
2016-May-26 23:33N 51°06' E 001°27'1717.1
2016-May-26 22:34N 50°58' E 001°51'0 0.0
2016-May-26 21:33N 50°58' E 001°51'1615.7
2016-May-26 20:33N 51°03' E 001°28'6 6.3
2016-May-26 19:32N 51°07' E 001°20'1010.0
2016-May-26 18:34N 51°03' E 001°34'1212.3
2016-May-26 17:33N 50°58' E 001°52'2 2.1
2016-May-26 16:33N 50°58' E 001°48'1919.1
2016-May-26 15:33N 51°07' E 001°21'1 0.8
2016-May-26 14:29N 51°07' E 001°20'1516.4
2016-May-26 13:34N 50°60' E 001°41'7 7.1
2016-May-26 12:34N 50°58' E 001°52'7 6.5
2016-May-26 11:33N 50°58' E 001°41'1616.1
2016-May-26 10:34N 51°07' E 001°20'0 0.2
2016-May-26 09:25N 51°07' E 001°20'1416.4
2016-May-26 08:33N 51°00' E 001°40'8 7.5
2016-May-26 07:33N 50°58' E 001°51'6 6.5
2016-May-26 06:33N 50°58' E 001°41'16 7.0
2016-May-26 04:18N 51°07' E 001°20'1114.4
2016-May-26 03:33N 51°03' E 001°36'1110.7
2016-May-26 02:33N 50°58' E 001°51'3 3.4
2016-May-26 01:34N 50°58' E 001°46'1918.6
2016-May-26 00:33N 51°07' E 001°20'0 0.3
2016-May-25 23:34N 51°07' E 001°21'1918.8
2016-May-25 22:33N 50°58' E 001°47'3 2.6
2016-May-25 21:33N 50°58' E 001°51'1313.2
2016-May-25 20:33N 51°02' E 001°31'9 6.2
2016-May-25 19:06N 51°07' E 001°20'712.5
2016-May-25 18:34N 51°05' E 001°30'1515.1
2016-May-25 17:33N 50°58' E 001°52'1 1.0
2016-May-25 16:32N 50°58' E 001°50'1717.7
2016-May-25 15:34N 51°05' E 001°25'4 3.6
2016-May-25 14:30N 51°07' E 001°20'1111.6
2016-May-25 13:33N 51°02' E 001°35'1111.1
2016-May-25 12:33N 50°58' E 001°52'3 2.7
2016-May-25 11:33N 50°58' E 001°47'1717.3
2016-May-25 10:33N 51°06' E 001°23'2 1.9
2016-May-25 09:24N 51°07' E 001°20'1315.3
2016-May-25 08:33N 51°01' E 001°38'9 8.7
2016-May-25 07:33N 50°58' E 001°51'9 9.0
2016-May-25 06:33N 50°60' E 001°37'7 3.6
2016-May-25 04:34N 51°05' E 001°29'1515.2
2016-May-25 03:33N 50°58' E 001°51'4 3.6
2016-May-25 02:34N 50°58' E 001°45'1915.8
2016-May-25 01:23N 51°07' E 001°20'0 0.2
2016-May-25 00:33N 51°07' E 001°20'1817.9
2016-May-24 23:33N 50°58' E 001°45'4 3.9
2016-May-24 22:33N 50°58' E 001°51'3 2.5
2016-May-24 21:34N 50°58' E 001°47'1817.7
2016-May-24 20:34N 51°06' E 001°22'2 1.7
2016-May-24 19:33N 51°07' E 001°20'10 9.6
2016-May-24 18:33N 51°04' E 001°34'1212.4
2016-May-24 17:33N 50°58' E 001°52'1 1.5
2016-May-24 16:33N 50°58' E 001°49'1817.9
2016-May-24 15:33N 51°06' E 001°23'3 2.3
2016-May-24 14:24N 51°07' E 001°20'1012.3
2016-May-24 13:33N 51°03' E 001°35'1211.5
2016-May-24 12:33N 50°58' E 001°52'1 0.9
2016-May-24 11:34N 50°58' E 001°50'1817.4
2016-May-24 10:33N 51°05' E 001°24'4 3.1
2016-May-24 09:18N 51°07' E 001°20'1014.0
2016-May-24 08:33N 51°02' E 001°34'1111.3
2016-May-24 07:33N 50°58' E 001°51'5 5.0
2016-May-24 06:33N 50°58' E 001°43'1714.0
2016-May-24 05:20N 51°07' E 001°20'0 0.0
2016-May-24 04:14N 51°07' E 001°20'812.4
2016-May-24 03:34N 51°04' E 001°32'1313.3
2016-May-24 02:33N 50°58' E 001°51'0 0.0
2016-May-24 01:33N 50°58' E 001°51'1313.4
2016-May-24 00:34N 51°02' E 001°31'9 8.4
2016-May-23 23:32N 51°07' E 001°20'7 7.6
2016-May-23 22:34N 51°05' E 001°31'1414.1
2016-May-23 21:33N 50°58' E 001°51'1 0.6
2016-May-23 20:33N 50°58' E 001°50'1716.8
2016-May-23 19:33N 51°04' E 001°25'5 3.7
2016-May-23 18:19N 51°07' E 001°20'1215.5
2016-May-23 17:34N 51°02' E 001°36'1010.3
2016-May-23 16:33N 50°58' E 001°52'6 5.6
2016-May-23 15:34N 50°58' E 001°43'1713.6
2016-May-23 14:18N 51°07' E 001°20'1 1.5
2016-May-23 13:33N 51°07' E 001°22'1818.1
2016-May-23 12:34N 50°58' E 001°47'3 2.6
2016-May-23 11:33N 50°58' E 001°51'1515.3
2016-May-23 10:34N 51°02' E 001°28'7 6.5
2016-May-23 09:28N 51°07' E 001°20'1112.1
2016-May-23 08:33N 51°02' E 001°35'1110.6
2016-May-23 07:33N 50°58' E 001°51'6 6.1
2016-May-23 06:34N 50°58' E 001°41'1615.8
2016-May-23 05:32N 51°07' E 001°20'0 0.0
2016-May-23 04:24N 51°07' E 001°20'1011.8
2016-May-23 03:34N 51°04' E 001°35'1211.8
2016-May-23 02:34N 50°58' E 001°51'0 0.0
2016-May-23 01:33N 50°58' E 001°51'1111.1
2016-May-23 00:33N 51°00' E 001°34'6 2.8
2016-May-22 22:34N 51°06' E 001°31'1514.6
2016-May-22 21:33N 50°58' E 001°51'0 0.0
2016-May-22 20:33N 50°58' E 001°51'1616.4
2016-May-22 19:34N 51°04' E 001°27'5 5.3
2016-May-22 18:33N 51°07' E 001°20'1111.2
2016-May-22 17:33N 51°02' E 001°36'1110.7
2016-May-22 16:33N 50°58' E 001°52'5 5.0
2016-May-22 15:34N 50°58' E 001°44'1817.5
2016-May-22 14:33N 51°07' E 001°20'2 2.1
2016-May-22 13:33N 51°07' E 001°23'1818.0
2016-May-22 12:34N 50°58' E 001°48'2 1.8
2016-May-22 11:33N 50°58' E 001°51'1514.7
2016-May-22 10:34N 51°02' E 001°29'7 6.2
2016-May-22 09:21N 51°07' E 001°20'1315.7
2016-May-22 08:33N 51°01' E 001°38'9 6.3
2016-May-22 07:07N 50°58' E 001°51'814.4
2016-May-22 06:33N 50°58' E 001°38'14 1.1
2016-May-21 18:07N 51°07' E 001°22'1120.0
2016-May-21 17:34N 51°02' E 001°37'10 9.5
2016-May-21 16:33N 50°58' E 001°51'8 8.1
2016-May-21 15:33N 50°58' E 001°39'12 6.0
2016-May-21 13:33N 51°07' E 001°25'1717.4
2016-May-21 12:33N 50°58' E 001°49'1 1.5
2016-May-21 11:33N 50°58' E 001°52'1414.5
2016-May-21 10:33N 51°03' E 001°30'  
Track history (hours):
 
Tides and Currents Weather Stations Pressure Air Temp Water Temp Dewpoint Dewpoint Depression Visibility Wind Speed Wind Dir Waves Ship Positions

Pride Of Kent

Operator: P & O Ferries

Last reported at 2016-May-31 09:33 UTC. Time now 2016-May-31 10:06 UTC.
Position N 51°07' E 001°28'.

Length 180 m; draft 6 m.

Type: Passenger vessel. MMSI: 232009000.

Date/timePositionNaut miles runAvg speedWind from/ knotsBaromVisibWave heightAir tempDewpointWater temp
2016-May-31 09:33N 51°07' E 001°28'1616.3
2016-May-31 08:34N 50°58' E 001°50'1 0.5
2016-May-31 07:33N 50°58' E 001°51'17 5.8
2016-May-31 04:34N 51°06' E 001°26'1616.3
2016-May-31 03:33N 50°58' E 001°50'1 1.0
2016-May-31 02:33N 50°58' E 001°51'1312.7
2016-May-31 01:33N 51°01' E 001°31'10 7.6
2016-May-31 00:16N 51°07' E 001°20'913.3
2016-May-30 23:33N 51°04' E 001°34'1212.1
2016-May-30 22:33N 50°58' E 001°51'2 2.0
2016-May-30 21:33N 50°58' E 001°48'1818.3
2016-May-30 20:33N 51°07' E 001°22'1 0.9
2016-May-30 19:33N 51°07' E 001°21'1717.1
2016-May-30 18:33N 50°58' E 001°44'4 4.4
2016-May-30 17:33N 50°58' E 001°51'7 6.8
2016-May-30 16:33N 50°58' E 001°40'1614.5
2016-May-30 15:29N 51°07' E 001°20'6 6.1
2016-May-30 14:34N 51°06' E 001°29'1616.0
2016-May-30 13:34N 50°58' E 001°51'0 0.0
2016-May-30 12:33N 50°58' E 001°51'4 4.0
2016-May-30 11:33N 50°58' E 001°45'1818.1
2016-May-30 10:33N 51°07' E 001°20'1 0.5
2016-May-30 09:32N 51°07' E 001°20'1616.7
2016-May-30 08:34N 50°59' E 001°43'5 5.3
2016-May-30 07:32N 50°58' E 001°51'7 6.9
2016-May-30 06:33N 50°58' E 001°40'16 7.4
2016-May-30 04:26N 51°07' E 001°20'8 8.7
2016-May-30 03:34N 51°04' E 001°31'1413.8
2016-May-30 02:33N 50°58' E 001°51'0 0.0
2016-May-30 01:33N 50°58' E 001°51'1212.1
2016-May-30 00:33N 51°00' E 001°32'10 9.6
2016-May-29 23:28N 51°07' E 001°20'7 7.6
2016-May-29 22:34N 51°06' E 001°31'1514.7
2016-May-29 21:33N 50°58' E 001°51'0 0.2
2016-May-29 20:33N 50°58' E 001°51'1717.3
2016-May-29 19:33N 51°05' E 001°26'4 4.3
2016-May-29 18:33N 51°07' E 001°20'1312.7
2016-May-29 17:33N 51°01' E 001°37'9 9.5
2016-May-29 16:33N 50°58' E 001°52'8 7.9
2016-May-29 15:33N 50°59' E 001°39'1510.0
2016-May-29 14:05N 51°07' E 001°20'611.7
2016-May-29 13:33N 51°05' E 001°29'1615.6
2016-May-29 12:33N 50°58' E 001°51'2 1.6
2016-May-29 11:33N 50°58' E 001°49'1717.5
2016-May-29 10:34N 51°06' E 001°24'3 2.6
2016-May-29 09:32N 51°07' E 001°20'1616.2
2016-May-29 08:33N 50°59' E 001°42'6 5.9
2016-May-29 07:33N 50°58' E 001°51'1111.0
2016-May-29 06:33N 51°00' E 001°34'11 5.0
2016-May-29 04:19N 51°07' E 001°20'6 7.5
2016-May-29 03:33N 51°06' E 001°29'1615.9
2016-May-29 02:33N 50°58' E 001°51'0 0.0
2016-May-29 01:31N 50°58' E 001°51'1516.1
2016-May-29 00:33N 51°03' E 001°28'7 6.6
2016-May-28 23:31N 51°07' E 001°20'1515.8
2016-May-28 22:33N 50°60' E 001°41'7 6.6
2016-May-28 21:33N 50°58' E 001°51'1111.4
2016-May-28 20:33N 50°60' E 001°33'1111.0
2016-May-28 19:32N 51°07' E 001°20'7 7.1
2016-May-28 18:33N 51°07' E 001°31'1414.4
2016-May-28 17:34N 50°58' E 001°49'1 1.2
2016-May-28 16:33N 50°58' E 001°51'1817.6
2016-May-28 15:34N 51°04' E 001°25'5 4.5
2016-May-28 14:33N 51°07' E 001°20'1212.2
2016-May-28 13:34N 51°02' E 001°38'10 9.7
2016-May-28 12:34N 50°58' E 001°52'4 4.0
2016-May-28 11:34N 50°58' E 001°45'1818.1
2016-May-28 10:34N 51°06' E 001°20'1 0.8
2016-May-28 09:24N 51°07' E 001°20'1517.3
2016-May-28 08:34N 50°60' E 001°40'7 7.0
2016-May-28 07:33N 50°58' E 001°51'1010.3
2016-May-28 06:33N 50°59' E 001°35'1211.0
2016-May-28 05:26N 51°07' E 001°20'0 0.0
2016-May-28 04:31N 51°07' E 001°20'1010.1
2016-May-28 03:34N 51°03' E 001°34'1211.8
2016-May-28 02:33N 50°58' E 001°51'4 3.8
2016-May-28 01:33N 50°58' E 001°45'1817.6
2016-May-28 00:33N 51°07' E 001°21'1 0.8
2016-May-27 23:24N 51°07' E 001°20'1315.5
2016-May-27 22:33N 51°01' E 001°38'9 8.5
2016-May-27 21:33N 50°58' E 001°51'6 6.2
2016-May-27 20:33N 50°59' E 001°41'1615.9
2016-May-27 19:33N 51°07' E 001°20'0 0.2
2016-May-27 18:34N 51°07' E 001°20'1818.0
2016-May-27 17:33N 50°58' E 001°45'4 4.1
2016-May-27 16:33N 50°58' E 001°52'1514.8
2016-May-27 15:33N 51°03' E 001°29'7 7.3
2016-May-27 14:32N 51°07' E 001°20'7 7.5
2016-May-27 13:33N 51°04' E 001°30'1514.6
2016-May-27 12:33N 50°58' E 001°52'2 1.7
2016-May-27 11:34N 50°58' E 001°49'1818.0
2016-May-27 10:33N 51°06' E 001°23'2 1.9
2016-May-27 09:20N 51°07' E 001°20'1215.3
2016-May-27 08:33N 51°01' E 001°37'10 9.7
2016-May-27 07:33N 50°58' E 001°51'7 6.7
2016-May-27 06:33N 50°58' E 001°40'15 7.5
2016-May-27 04:34N 51°07' E 001°21'1817.9
2016-May-27 03:34N 50°58' E 001°46'3 3.4
2016-May-27 02:33N 50°58' E 001°51'1312.8
2016-May-27 01:33N 51°02' E 001°32'9 8.7
2016-May-27 00:30N 51°07' E 001°20'5 5.0
2016-May-26 23:33N 51°06' E 001°27'1717.1
2016-May-26 22:34N 50°58' E 001°51'0 0.0
2016-May-26 21:33N 50°58' E 001°51'1615.7
2016-May-26 20:33N 51°03' E 001°28'6 6.3
2016-May-26 19:32N 51°07' E 001°20'1010.0
2016-May-26 18:34N 51°03' E 001°34'1212.3
2016-May-26 17:33N 50°58' E 001°52'2 2.1
2016-May-26 16:33N 50°58' E 001°48'1919.1
2016-May-26 15:33N 51°07' E 001°21'1 0.8
2016-May-26 14:29N 51°07' E 001°20'1516.4
2016-May-26 13:34N 50°60' E 001°41'7 7.1
2016-May-26 12:34N 50°58' E 001°52'7 6.5
2016-May-26 11:33N 50°58' E 001°41'1616.1
2016-May-26 10:34N 51°07' E 001°20'0 0.2
2016-May-26 09:25N 51°07' E 001°20'1416.4
2016-May-26 08:33N 51°00' E 001°40'8 7.5
2016-May-26 07:33N 50°58' E 001°51'6 6.5
2016-May-26 06:33N 50°58' E 001°41'16 7.0
2016-May-26 04:18N 51°07' E 001°20'1114.4
2016-May-26 03:33N 51°03' E 001°36'1110.7
2016-May-26 02:33N 50°58' E 001°51'3 3.4
2016-May-26 01:34N 50°58' E 001°46'1918.6
2016-May-26 00:33N 51°07' E 001°20'0 0.3
2016-May-25 23:34N 51°07' E 001°21'1918.8
2016-May-25 22:33N 50°58' E 001°47'3 2.6
2016-May-25 21:33N 50°58' E 001°51'1313.2
2016-May-25 20:33N 51°02' E 001°31'9 6.2
2016-May-25 19:06N 51°07' E 001°20'712.5
2016-May-25 18:34N 51°05' E 001°30'1515.1
2016-May-25 17:33N 50°58' E 001°52'1 1.0
2016-May-25 16:32N 50°58' E 001°50'1717.7
2016-May-25 15:34N 51°05' E 001°25'4 3.6
2016-May-25 14:30N 51°07' E 001°20'1111.6
2016-May-25 13:33N 51°02' E 001°35'1111.1
2016-May-25 12:33N 50°58' E 001°52'3 2.7
2016-May-25 11:33N 50°58' E 001°47'1717.3
2016-May-25 10:33N 51°06' E 001°23'2 1.9
2016-May-25 09:24N 51°07' E 001°20'1315.3
2016-May-25 08:33N 51°01' E 001°38'9 8.7
2016-May-25 07:33N 50°58' E 001°51'9 9.0
2016-May-25 06:33N 50°60' E 001°37'7 3.6
2016-May-25 04:34N 51°05' E 001°29'1515.2
2016-May-25 03:33N 50°58' E 001°51'4 3.6
2016-May-25 02:34N 50°58' E 001°45'1915.8
2016-May-25 01:23N 51°07' E 001°20'0 0.2
2016-May-25 00:33N 51°07' E 001°20'1817.9
2016-May-24 23:33N 50°58' E 001°45'4 3.9
2016-May-24 22:33N 50°58' E 001°51'3 2.5
2016-May-24 21:34N 50°58' E 001°47'1817.7
2016-May-24 20:34N 51°06' E 001°22'2 1.7
2016-May-24 19:33N 51°07' E 001°20'10 9.6
2016-May-24 18:33N 51°04' E 001°34'1212.4
2016-May-24 17:33N 50°58' E 001°52'1 1.5
2016-May-24 16:33N 50°58' E 001°49'1817.9
2016-May-24 15:33N 51°06' E 001°23'3 2.3
2016-May-24 14:24N 51°07' E 001°20'1012.3
2016-May-24 13:33N 51°03' E 001°35'1211.5
2016-May-24 12:33N 50°58' E 001°52'1 0.9
2016-May-24 11:34N 50°58' E 001°50'1817.4
2016-May-24 10:33N 51°05' E 001°24'4 3.1
2016-May-24 09:18N 51°07' E 001°20'1014.0
2016-May-24 08:33N 51°02' E 001°34'1111.3
2016-May-24 07:33N 50°58' E 001°51'5 5.0
2016-May-24 06:33N 50°58' E 001°43'1714.0
2016-May-24 05:20N 51°07' E 001°20'0 0.0
2016-May-24 04:14N 51°07' E 001°20'812.4
2016-May-24 03:34N 51°04' E 001°32'1313.3
2016-May-24 02:33N 50°58' E 001°51'0 0.0
2016-May-24 01:33N 50°58' E 001°51'1313.4
2016-May-24 00:34N 51°02' E 001°31'9 8.4
2016-May-23 23:32N 51°07' E 001°20'7 7.6
2016-May-23 22:34N 51°05' E 001°31'1414.1
2016-May-23 21:33N 50°58' E 001°51'1 0.6
2016-May-23 20:33N 50°58' E 001°50'1716.8
2016-May-23 19:33N 51°04' E 001°25'5 3.7
2016-May-23 18:19N 51°07' E 001°20'1215.5
2016-May-23 17:34N 51°02' E 001°36'1010.3
2016-May-23 16:33N 50°58' E 001°52'6 5.6
2016-May-23 15:34N 50°58' E 001°43'1713.6
2016-May-23 14:18N 51°07' E 001°20'1 1.5
2016-May-23 13:33N 51°07' E 001°22'1818.1
2016-May-23 12:34N 50°58' E 001°47'3 2.6
2016-May-23 11:33N 50°58' E 001°51'1515.3
2016-May-23 10:34N 51°02' E 001°28'7 6.5
2016-May-23 09:28N 51°07' E 001°20'1112.1
2016-May-23 08:33N 51°02' E 001°35'1110.6
2016-May-23 07:33N 50°58' E 001°51'6 6.1
2016-May-23 06:34N 50°58' E 001°41'1615.8
2016-May-23 05:32N 51°07' E 001°20'0 0.0
2016-May-23 04:24N 51°07' E 001°20'1011.8
2016-May-23 03:34N 51°04' E 001°35'1211.8
2016-May-23 02:34N 50°58' E 001°51'0 0.0
2016-May-23 01:33N 50°58' E 001°51'1111.1
2016-May-23 00:33N 51°00' E 001°34'6 2.8
2016-May-22 22:34N 51°06' E 001°31'1514.6
2016-May-22 21:33N 50°58' E 001°51'0 0.0
2016-May-22 20:33N 50°58' E 001°51'1616.4
2016-May-22 19:34N 51°04' E 001°27'5 5.3
2016-May-22 18:33N 51°07' E 001°20'1111.2
2016-May-22 17:33N 51°02' E 001°36'1110.7
2016-May-22 16:33N 50°58' E 001°52'5 5.0
2016-May-22 15:34N 50°58' E 001°44'1817.5
2016-May-22 14:33N 51°07' E 001°20'2 2.1
2016-May-22 13:33N 51°07' E 001°23'1818.0
2016-May-22 12:34N 50°58' E 001°48'2 1.8
2016-May-22 11:33N 50°58' E 001°51'1514.7
2016-May-22 10:34N 51°02' E 001°29'7 6.2
2016-May-22 09:21N 51°07' E 001°20'1315.7
2016-May-22 08:33N 51°01' E 001°38'9 6.3
2016-May-22 07:07N 50°58' E 001°51'814.4
2016-May-22 06:33N 50°58' E 001°38'14 1.1
2016-May-21 18:07N 51°07' E 001°22'1120.0
2016-May-21 17:34N 51°02' E 001°37'10 9.5
2016-May-21 16:33N 50°58' E 001°51'8 8.1
2016-May-21 15:33N 50°58' E 001°39'12 6.0
2016-May-21 13:33N 51°07' E 001°25'1717.4
2016-May-21 12:33N 50°58' E 001°49'1 1.5
2016-May-21 11:33N 50°58' E 001°52'1414.5
2016-May-21 10:33N 51°03' E 001°30'  

Dump ship's entire track history